sensor_id;sensor_type;location;lat;lon;timestamp;P1;durP1;ratioP1;P2;durP2;ratioP2
29280;SDS011;25048;49.590;11.026;2022-09-03T00:02:06;1.07;;;0.80;;
29280;SDS011;25048;49.590;11.026;2022-09-03T00:04:50;3.87;;;1.20;;
29280;SDS011;25048;49.590;11.026;2022-09-03T00:13:09;1.30;;;1.20;;
29280;SDS011;25048;49.590;11.026;2022-09-03T00:15:39;1.00;;;0.90;;
29280;SDS011;25048;49.590;11.026;2022-09-03T00:18:08;5.63;;;1.10;;
29280;SDS011;25048;49.590;11.026;2022-09-03T00:20:45;2.70;;;0.90;;
29280;SDS011;25048;49.590;11.026;2022-09-03T00:23:18;3.20;;;1.10;;
29280;SDS011;25048;49.590;11.026;2022-09-03T00:28:36;1.17;;;1.07;;
29280;SDS011;25048;49.590;11.026;2022-09-03T00:31:08;2.33;;;1.27;;
29280;SDS011;25048;49.590;11.026;2022-09-03T00:33:48;2.80;;;1.13;;
29280;SDS011;25048;49.590;11.026;2022-09-03T00:36:20;1.43;;;1.27;;
29280;SDS011;25048;49.590;11.026;2022-09-03T00:38:52;1.20;;;1.10;;
29280;SDS011;25048;49.590;11.026;2022-09-03T01:00:19;2.47;;;1.13;;
29280;SDS011;25048;49.590;11.026;2022-09-03T01:05:45;3.03;;;1.10;;
29280;SDS011;25048;49.590;11.026;2022-09-03T01:13:41;2.30;;;1.10;;
29280;SDS011;25048;49.590;11.026;2022-09-03T01:19:36;6.20;;;1.20;;
29280;SDS011;25048;49.590;11.026;2022-09-03T01:25:14;2.30;;;1.07;;
29280;SDS011;25048;49.590;11.026;2022-09-03T01:27:45;2.27;;;1.60;;
29280;SDS011;25048;49.590;11.026;2022-09-03T01:30:23;3.67;;;1.13;;
29280;SDS011;25048;49.590;11.026;2022-09-03T01:33:03;1.80;;;1.33;;
29280;SDS011;25048;49.590;11.026;2022-09-03T01:35:36;3.90;;;1.30;;
29280;SDS011;25048;49.590;11.026;2022-09-03T01:41:12;1.63;;;1.27;;
29280;SDS011;25048;49.590;11.026;2022-09-03T01:44:05;4.10;;;1.40;;
29280;SDS011;25048;49.590;11.026;2022-09-03T01:46:39;4.27;;;1.10;;
29280;SDS011;25048;49.590;11.026;2022-09-03T01:49:18;2.40;;;1.67;;
29280;SDS011;25048;49.590;11.026;2022-09-03T01:51:49;1.10;;;1.00;;
29280;SDS011;25048;49.590;11.026;2022-09-03T01:54:25;2.00;;;1.50;;
29280;SDS011;25048;49.590;11.026;2022-09-03T01:59:50;4.67;;;1.40;;
29280;SDS011;25048;49.590;11.026;2022-09-03T02:02:25;2.23;;;1.00;;
29280;SDS011;25048;49.590;11.026;2022-09-03T02:04:54;1.73;;;1.20;;
29280;SDS011;25048;49.590;11.026;2022-09-03T02:07:33;1.87;;;1.30;;
29280;SDS011;25048;49.590;11.026;2022-09-03T02:10:00;2.60;;;1.17;;
29280;SDS011;25048;49.590;11.026;2022-09-03T02:12:31;2.80;;;1.20;;
29280;SDS011;25048;49.590;11.026;2022-09-03T02:15:00;1.57;;;1.20;;
29280;SDS011;25048;49.590;11.026;2022-09-03T02:17:31;1.33;;;1.20;;
29280;SDS011;25048;49.590;11.026;2022-09-03T02:20:02;1.90;;;1.20;;
29280;SDS011;25048;49.590;11.026;2022-09-03T02:22:31;1.43;;;1.20;;
29280;SDS011;25048;49.590;11.026;2022-09-03T02:24:59;3.70;;;0.93;;
29280;SDS011;25048;49.590;11.026;2022-09-03T02:27:27;2.10;;;1.20;;
29280;SDS011;25048;49.590;11.026;2022-09-03T02:29:55;1.30;;;1.20;;
29280;SDS011;25048;49.590;11.026;2022-09-03T02:32:23;1.37;;;1.00;;
29280;SDS011;25048;49.590;11.026;2022-09-03T02:34:51;1.40;;;1.27;;
29280;SDS011;25048;49.590;11.026;2022-09-03T02:37:19;2.90;;;1.20;;
29280;SDS011;25048;49.590;11.026;2022-09-03T02:39:46;1.90;;;1.20;;
29280;SDS011;25048;49.590;11.026;2022-09-03T02:42:14;1.53;;;1.00;;
29280;SDS011;25048;49.590;11.026;2022-09-03T02:44:56;2.70;;;1.43;;
29280;SDS011;25048;49.590;11.026;2022-09-03T02:47:27;1.40;;;1.20;;
29280;SDS011;25048;49.590;11.026;2022-09-03T02:49:56;1.67;;;1.10;;
29280;SDS011;25048;49.590;11.026;2022-09-03T02:52:24;4.53;;;1.30;;
29280;SDS011;25048;49.590;11.026;2022-09-03T02:54:51;3.13;;;1.37;;
29280;SDS011;25048;49.590;11.026;2022-09-03T02:57:19;1.40;;;1.13;;
29280;SDS011;25048;49.590;11.026;2022-09-03T02:59:46;2.87;;;1.27;;
29280;SDS011;25048;49.590;11.026;2022-09-03T03:02:14;1.63;;;1.30;;
29280;SDS011;25048;49.590;11.026;2022-09-03T03:04:42;1.20;;;1.10;;
29280;SDS011;25048;49.590;11.026;2022-09-03T03:07:09;2.80;;;1.37;;
29280;SDS011;25048;49.590;11.026;2022-09-03T03:09:37;1.43;;;1.20;;
29280;SDS011;25048;49.590;11.026;2022-09-03T03:12:04;1.13;;;1.03;;
29280;SDS011;25048;49.590;11.026;2022-09-03T03:14:34;1.30;;;1.20;;
29280;SDS011;25048;49.590;11.026;2022-09-03T03:17:01;1.17;;;1.07;;
29280;SDS011;25048;49.590;11.026;2022-09-03T03:19:29;3.87;;;1.40;;
29280;SDS011;25048;49.590;11.026;2022-09-03T03:21:56;4.43;;;1.33;;
29280;SDS011;25048;49.590;11.026;2022-09-03T03:24:24;1.20;;;1.10;;
29280;SDS011;25048;49.590;11.026;2022-09-03T03:26:54;3.10;;;1.50;;
29280;SDS011;25048;49.590;11.026;2022-09-03T03:29:22;3.03;;;1.40;;
29280;SDS011;25048;49.590;11.026;2022-09-03T03:31:50;6.80;;;1.80;;
29280;SDS011;25048;49.590;11.026;2022-09-03T03:34:18;3.60;;;1.40;;
29280;SDS011;25048;49.590;11.026;2022-09-03T03:36:45;1.53;;;1.40;;
29280;SDS011;25048;49.590;11.026;2022-09-03T03:39:13;4.10;;;1.20;;
29280;SDS011;25048;49.590;11.026;2022-09-03T03:41:40;1.43;;;1.07;;
29280;SDS011;25048;49.590;11.026;2022-09-03T03:44:08;4.27;;;1.60;;
29280;SDS011;25048;49.590;11.026;2022-09-03T03:46:36;1.60;;;1.30;;
29280;SDS011;25048;49.590;11.026;2022-09-03T03:49:05;1.10;;;1.00;;
29280;SDS011;25048;49.590;11.026;2022-09-03T03:51:34;2.20;;;1.40;;
29280;SDS011;25048;49.590;11.026;2022-09-03T03:54:02;1.90;;;1.33;;
29280;SDS011;25048;49.590;11.026;2022-09-03T03:56:30;5.00;;;1.53;;
29280;SDS011;25048;49.590;11.026;2022-09-03T03:58:59;1.87;;;1.37;;
29280;SDS011;25048;49.590;11.026;2022-09-03T04:01:27;1.40;;;1.20;;
29280;SDS011;25048;49.590;11.026;2022-09-03T04:03:55;2.20;;;1.60;;
29280;SDS011;25048;49.590;11.026;2022-09-03T04:06:24;1.60;;;1.47;;
29280;SDS011;25048;49.590;11.026;2022-09-03T04:08:52;2.87;;;1.50;;
29280;SDS011;25048;49.590;11.026;2022-09-03T04:11:20;1.23;;;1.13;;
29280;SDS011;25048;49.590;11.026;2022-09-03T04:13:49;1.57;;;1.47;;
29280;SDS011;25048;49.590;11.026;2022-09-03T04:16:21;2.30;;;1.43;;
29280;SDS011;25048;49.590;11.026;2022-09-03T04:18:50;1.73;;;1.43;;
29280;SDS011;25048;49.590;11.026;2022-09-03T04:21:22;2.27;;;1.50;;
29280;SDS011;25048;49.590;11.026;2022-09-03T04:23:52;1.90;;;1.50;;
29280;SDS011;25048;49.590;11.026;2022-09-03T04:26:21;2.53;;;1.50;;
29280;SDS011;25048;49.590;11.026;2022-09-03T04:28:54;2.77;;;1.60;;
29280;SDS011;25048;49.590;11.026;2022-09-03T04:31:22;1.90;;;1.50;;
29280;SDS011;25048;49.590;11.026;2022-09-03T04:33:50;2.00;;;1.50;;
29280;SDS011;25048;49.590;11.026;2022-09-03T04:36:18;2.60;;;1.50;;
29280;SDS011;25048;49.590;11.026;2022-09-03T04:38:48;1.60;;;1.30;;
29280;SDS011;25048;49.590;11.026;2022-09-03T04:41:19;1.97;;;1.57;;
29280;SDS011;25048;49.590;11.026;2022-09-03T04:43:51;3.07;;;1.30;;
29280;SDS011;25048;49.590;11.026;2022-09-03T04:46:20;2.23;;;1.57;;
29280;SDS011;25048;49.590;11.026;2022-09-03T04:48:50;2.53;;;1.67;;
29280;SDS011;25048;49.590;11.026;2022-09-03T04:51:20;3.50;;;1.40;;
29280;SDS011;25048;49.590;11.026;2022-09-03T04:53:54;4.47;;;1.67;;
29280;SDS011;25048;49.590;11.026;2022-09-03T04:56:24;2.50;;;1.40;;
29280;SDS011;25048;49.590;11.026;2022-09-03T04:58:59;3.10;;;1.70;;
29280;SDS011;25048;49.590;11.026;2022-09-03T05:01:24;2.33;;;1.50;;
29280;SDS011;25048;49.590;11.026;2022-09-03T05:03:54;4.67;;;1.83;;
29280;SDS011;25048;49.590;11.026;2022-09-03T05:06:23;2.03;;;1.57;;
29280;SDS011;25048;49.590;11.026;2022-09-03T05:08:51;2.33;;;1.40;;
29280;SDS011;25048;49.590;11.026;2022-09-03T05:11:20;2.63;;;1.50;;
29280;SDS011;25048;49.590;11.026;2022-09-03T05:13:50;1.40;;;1.27;;
29280;SDS011;25048;49.590;11.026;2022-09-03T05:16:19;3.13;;;1.40;;
29280;SDS011;25048;49.590;11.026;2022-09-03T05:18:47;2.63;;;1.70;;
29280;SDS011;25048;49.590;11.026;2022-09-03T05:21:17;1.70;;;1.40;;
29280;SDS011;25048;49.590;11.026;2022-09-03T05:23:45;4.13;;;1.40;;
29280;SDS011;25048;49.590;11.026;2022-09-03T05:26:20;2.53;;;1.50;;
29280;SDS011;25048;49.590;11.026;2022-09-03T05:28:51;4.43;;;1.70;;
29280;SDS011;25048;49.590;11.026;2022-09-03T05:31:22;1.57;;;1.30;;
29280;SDS011;25048;49.590;11.026;2022-09-03T05:33:52;1.63;;;1.30;;
29280;SDS011;25048;49.590;11.026;2022-09-03T05:36:23;2.37;;;1.27;;
29280;SDS011;25048;49.590;11.026;2022-09-03T05:38:52;4.50;;;1.53;;
29280;SDS011;25048;49.590;11.026;2022-09-03T05:41:20;1.97;;;1.30;;
29280;SDS011;25048;49.590;11.026;2022-09-03T05:43:50;2.00;;;1.50;;
29280;SDS011;25048;49.590;11.026;2022-09-03T05:46:20;2.43;;;1.40;;
29280;SDS011;25048;49.590;11.026;2022-09-03T05:48:51;2.50;;;1.37;;
29280;SDS011;25048;49.590;11.026;2022-09-03T05:51:18;2.27;;;1.20;;
29280;SDS011;25048;49.590;11.026;2022-09-03T05:53:46;4.93;;;1.70;;
29280;SDS011;25048;49.590;11.026;2022-09-03T05:56:23;4.27;;;1.40;;
29280;SDS011;25048;49.590;11.026;2022-09-03T05:58:48;2.20;;;1.40;;
29280;SDS011;25048;49.590;11.026;2022-09-03T06:01:23;2.77;;;1.20;;
29280;SDS011;25048;49.590;11.026;2022-09-03T06:03:54;2.63;;;1.23;;
29280;SDS011;25048;49.590;11.026;2022-09-03T06:06:26;2.30;;;1.30;;
29280;SDS011;25048;49.590;11.026;2022-09-03T06:08:57;3.20;;;1.30;;
29280;SDS011;25048;49.590;11.026;2022-09-03T06:11:27;4.80;;;1.20;;
29280;SDS011;25048;49.590;11.026;2022-09-03T06:13:55;2.37;;;1.30;;
29280;SDS011;25048;49.590;11.026;2022-09-03T06:16:27;1.80;;;1.07;;
29280;SDS011;25048;49.590;11.026;2022-09-03T06:18:56;1.80;;;1.20;;
29280;SDS011;25048;49.590;11.026;2022-09-03T06:21:24;2.00;;;1.20;;
29280;SDS011;25048;49.590;11.026;2022-09-03T06:23:52;4.20;;;1.40;;
29280;SDS011;25048;49.590;11.026;2022-09-03T06:26:24;2.30;;;1.40;;
29280;SDS011;25048;49.590;11.026;2022-09-03T06:28:53;1.67;;;1.10;;
29280;SDS011;25048;49.590;11.026;2022-09-03T06:31:21;1.93;;;1.40;;
29280;SDS011;25048;49.590;11.026;2022-09-03T06:33:49;1.43;;;1.30;;
29280;SDS011;25048;49.590;11.026;2022-09-03T06:36:19;1.53;;;1.03;;
29280;SDS011;25048;49.590;11.026;2022-09-03T06:38:50;2.70;;;1.20;;
29280;SDS011;25048;49.590;11.026;2022-09-03T06:41:19;3.07;;;1.07;;
29280;SDS011;25048;49.590;11.026;2022-09-03T06:43:51;8.73;;;1.50;;
29280;SDS011;25048;49.590;11.026;2022-09-03T06:46:22;2.50;;;1.30;;
29280;SDS011;25048;49.590;11.026;2022-09-03T06:48:50;1.82;;;1.25;;
29280;SDS011;25048;49.590;11.026;2022-09-03T06:51:19;3.00;;;1.50;;
29280;SDS011;25048;49.590;11.026;2022-09-03T06:53:51;2.10;;;1.63;;
29280;SDS011;25048;49.590;11.026;2022-09-03T06:56:21;3.10;;;1.30;;
29280;SDS011;25048;49.590;11.026;2022-09-03T06:58:56;1.93;;;1.37;;
29280;SDS011;25048;49.590;11.026;2022-09-03T07:01:24;3.65;;;2.17;;
29280;SDS011;25048;49.590;11.026;2022-09-03T07:03:55;4.00;;;1.23;;
29280;SDS011;25048;49.590;11.026;2022-09-03T07:06:26;2.33;;;1.17;;
29280;SDS011;25048;49.590;11.026;2022-09-03T07:08:55;2.07;;;1.33;;
29280;SDS011;25048;49.590;11.026;2022-09-03T07:11:29;1.52;;;1.10;;
29280;SDS011;25048;49.590;11.026;2022-09-03T07:13:58;2.43;;;1.23;;
29280;SDS011;25048;49.590;11.026;2022-09-03T07:16:26;3.45;;;1.00;;
29280;SDS011;25048;49.590;11.026;2022-09-03T07:18:55;3.15;;;1.20;;
29280;SDS011;25048;49.590;11.026;2022-09-03T07:21:27;1.95;;;1.00;;
29280;SDS011;25048;49.590;11.026;2022-09-03T07:23:56;3.12;;;1.20;;
29280;SDS011;25048;49.590;11.026;2022-09-03T07:26:25;1.30;;;1.20;;
29280;SDS011;25048;49.590;11.026;2022-09-03T07:28:55;2.70;;;1.30;;
29280;SDS011;25048;49.590;11.026;2022-09-03T07:31:26;3.58;;;1.32;;
29280;SDS011;25048;49.590;11.026;2022-09-03T07:34:02;1.87;;;1.32;;
29280;SDS011;25048;49.590;11.026;2022-09-03T07:36:27;1.57;;;1.07;;
29280;SDS011;25048;49.590;11.026;2022-09-03T07:38:57;3.12;;;1.20;;
29280;SDS011;25048;49.590;11.026;2022-09-03T07:41:25;1.90;;;1.20;;
29280;SDS011;25048;49.590;11.026;2022-09-03T07:43:52;2.50;;;1.30;;
29280;SDS011;25048;49.590;11.026;2022-09-03T07:46:21;1.35;;;1.20;;
29280;SDS011;25048;49.590;11.026;2022-09-03T07:48:51;6.22;;;1.80;;
29280;SDS011;25048;49.590;11.026;2022-09-03T07:51:20;3.70;;;1.32;;
29280;SDS011;25048;49.590;11.026;2022-09-03T07:53:52;4.08;;;1.40;;
29280;SDS011;25048;49.590;11.026;2022-09-03T07:56:22;6.78;;;1.60;;
29280;SDS011;25048;49.590;11.026;2022-09-03T07:58:50;2.27;;;1.02;;
29280;SDS011;25048;49.590;11.026;2022-09-03T08:01:20;5.97;;;1.37;;
29280;SDS011;25048;49.590;11.026;2022-09-03T08:03:50;1.55;;;1.00;;
29280;SDS011;25048;49.590;11.026;2022-09-03T08:06:19;3.77;;;1.55;;
29280;SDS011;25048;49.590;11.026;2022-09-03T08:08:48;3.02;;;1.30;;
29280;SDS011;25048;49.590;11.026;2022-09-03T08:11:18;2.45;;;1.52;;
29280;SDS011;25048;49.590;11.026;2022-09-03T08:13:47;3.08;;;1.67;;
29280;SDS011;25048;49.590;11.026;2022-09-03T08:16:17;1.95;;;1.17;;
29280;SDS011;25048;49.590;11.026;2022-09-03T08:18:44;4.78;;;1.40;;
29280;SDS011;25048;49.590;11.026;2022-09-03T08:21:13;7.22;;;1.80;;
29280;SDS011;25048;49.590;11.026;2022-09-03T08:23:42;2.95;;;1.60;;
29280;SDS011;25048;49.590;11.026;2022-09-03T08:26:11;3.33;;;1.22;;
29280;SDS011;25048;49.590;11.026;2022-09-03T08:28:39;1.77;;;1.47;;
29280;SDS011;25048;49.590;11.026;2022-09-03T08:31:08;4.35;;;2.47;;
29280;SDS011;25048;49.590;11.026;2022-09-03T08:33:41;3.45;;;1.45;;
29280;SDS011;25048;49.590;11.026;2022-09-03T08:36:14;2.52;;;1.60;;
29280;SDS011;25048;49.590;11.026;2022-09-03T08:38:44;3.08;;;1.32;;
29280;SDS011;25048;49.590;11.026;2022-09-03T08:41:14;1.92;;;1.30;;
29280;SDS011;25048;49.590;11.026;2022-09-03T08:47:01;2.60;;;1.32;;
29280;SDS011;25048;49.590;11.026;2022-09-03T08:52:25;2.40;;;1.30;;
29280;SDS011;25048;49.590;11.026;2022-09-03T08:54:59;4.80;;;1.20;;
29280;SDS011;25048;49.590;11.026;2022-09-03T08:57:49;5.10;;;1.60;;
29280;SDS011;25048;49.590;11.026;2022-09-03T09:00:14;3.22;;;1.50;;
29280;SDS011;25048;49.590;11.026;2022-09-03T09:02:47;3.55;;;1.35;;
29280;SDS011;25048;49.590;11.026;2022-09-03T09:05:21;2.17;;;1.20;;
29280;SDS011;25048;49.590;11.026;2022-09-03T09:10:48;2.62;;;1.50;;
29280;SDS011;25048;49.590;11.026;2022-09-03T09:13:35;2.20;;;1.10;;
29280;SDS011;25048;49.590;11.026;2022-09-03T09:16:05;2.95;;;1.27;;
29280;SDS011;25048;49.590;11.026;2022-09-03T09:18:55;2.08;;;1.15;;
29280;SDS011;25048;49.590;11.026;2022-09-03T09:21:36;2.77;;;1.40;;
29280;SDS011;25048;49.590;11.026;2022-09-03T09:24:17;4.12;;;1.42;;
29280;SDS011;25048;49.590;11.026;2022-09-03T09:26:46;2.00;;;1.30;;
29280;SDS011;25048;49.590;11.026;2022-09-03T09:29:14;1.90;;;1.20;;
29280;SDS011;25048;49.590;11.026;2022-09-03T09:31:42;2.27;;;1.62;;
29280;SDS011;25048;49.590;11.026;2022-09-03T09:34:10;5.65;;;1.42;;
29280;SDS011;25048;49.590;11.026;2022-09-03T09:36:46;2.87;;;1.50;;
29280;SDS011;25048;49.590;11.026;2022-09-03T09:39:14;3.42;;;1.20;;
29280;SDS011;25048;49.590;11.026;2022-09-03T09:41:42;3.27;;;1.27;;
29280;SDS011;25048;49.590;11.026;2022-09-03T09:44:18;1.60;;;0.98;;
29280;SDS011;25048;49.590;11.026;2022-09-03T09:46:46;1.47;;;1.05;;
29280;SDS011;25048;49.590;11.026;2022-09-03T09:49:24;4.78;;;1.50;;
29280;SDS011;25048;49.590;11.026;2022-09-03T09:51:48;2.02;;;1.30;;
29280;SDS011;25048;49.590;11.026;2022-09-03T09:54:23;1.70;;;1.30;;
29280;SDS011;25048;49.590;11.026;2022-09-03T09:56:57;2.05;;;1.52;;
29280;SDS011;25048;49.590;11.026;2022-09-03T09:59:31;2.80;;;1.55;;
29280;SDS011;25048;49.590;11.026;2022-09-03T10:02:06;24.37;;;6.40;;
29280;SDS011;25048;49.590;11.026;2022-09-03T10:04:39;11.45;;;3.20;;
29280;SDS011;25048;49.590;11.026;2022-09-03T10:07:20;43.90;;;11.28;;
29280;SDS011;25048;49.590;11.026;2022-09-03T10:10:03;22.22;;;4.67;;
29280;SDS011;25048;49.590;11.026;2022-09-03T10:12:38;21.40;;;5.30;;
29280;SDS011;25048;49.590;11.026;2022-09-03T10:15:07;11.65;;;3.72;;
29280;SDS011;25048;49.590;11.026;2022-09-03T10:17:51;5.50;;;2.50;;
29280;SDS011;25048;49.590;11.026;2022-09-03T10:20:36;4.65;;;1.30;;
29280;SDS011;25048;49.590;11.026;2022-09-03T10:23:24;2.77;;;1.50;;
29280;SDS011;25048;49.590;11.026;2022-09-03T10:28:37;2.87;;;1.27;;
29280;SDS011;25048;49.590;11.026;2022-09-03T10:36:35;2.33;;;1.50;;
29280;SDS011;25048;49.590;11.026;2022-09-03T10:44:20;4.30;;;1.27;;
29280;SDS011;25048;49.590;11.026;2022-09-03T10:46:53;1.77;;;1.50;;
29280;SDS011;25048;49.590;11.026;2022-09-03T10:52:14;2.65;;;1.62;;
29280;SDS011;25048;49.590;11.026;2022-09-03T10:54:47;2.80;;;1.57;;
29280;SDS011;25048;49.590;11.026;2022-09-03T10:57:47;1.52;;;1.42;;
29280;SDS011;25048;49.590;11.026;2022-09-03T11:00:30;2.75;;;1.47;;
29280;SDS011;25048;49.590;11.026;2022-09-03T11:06:05;2.77;;;1.45;;
29280;SDS011;25048;49.590;11.026;2022-09-03T11:08:41;8.28;;;1.65;;
29280;SDS011;25048;49.590;11.026;2022-09-03T11:11:35;2.77;;;1.47;;
29280;SDS011;25048;49.590;11.026;2022-09-03T11:14:11;2.52;;;1.50;;
29280;SDS011;25048;49.590;11.026;2022-09-03T11:16:42;5.78;;;1.50;;
29280;SDS011;25048;49.590;11.026;2022-09-03T11:19:12;1.32;;;1.20;;
29280;SDS011;25048;49.590;11.026;2022-09-03T11:21:41;3.55;;;1.57;;
29280;SDS011;25048;49.590;11.026;2022-09-03T11:24:24;1.98;;;1.70;;
29280;SDS011;25048;49.590;11.026;2022-09-03T11:27:02;3.55;;;1.70;;
29280;SDS011;25048;49.590;11.026;2022-09-03T11:29:43;5.17;;;2.02;;
29280;SDS011;25048;49.590;11.026;2022-09-03T11:32:08;6.58;;;1.40;;
29280;SDS011;25048;49.590;11.026;2022-09-03T11:34:45;4.90;;;1.55;;
29280;SDS011;25048;49.590;11.026;2022-09-03T11:37:16;4.50;;;1.75;;
29280;SDS011;25048;49.590;11.026;2022-09-03T11:42:46;2.10;;;1.57;;
29280;SDS011;25048;49.590;11.026;2022-09-03T11:45:21;4.12;;;1.65;;
29280;SDS011;25048;49.590;11.026;2022-09-03T11:47:50;1.65;;;1.47;;
29280;SDS011;25048;49.590;11.026;2022-09-03T11:52:50;3.95;;;1.57;;
29280;SDS011;25048;49.590;11.026;2022-09-03T11:55:25;1.70;;;1.50;;
29280;SDS011;25048;49.590;11.026;2022-09-03T12:00:45;2.77;;;2.00;;
29280;SDS011;25048;49.590;11.026;2022-09-03T12:03:15;3.58;;;1.80;;
29280;SDS011;25048;49.590;11.026;2022-09-03T12:09:03;1.80;;;1.70;;
29280;SDS011;25048;49.590;11.026;2022-09-03T12:14:55;2.98;;;1.80;;
29280;SDS011;25048;49.590;11.026;2022-09-03T12:19:54;3.10;;;2.00;;
29280;SDS011;25048;49.590;11.026;2022-09-03T12:22:27;2.55;;;2.20;;
29280;SDS011;25048;49.590;11.026;2022-09-03T12:25:06;3.50;;;2.10;;
29280;SDS011;25048;49.590;11.026;2022-09-03T12:27:46;5.35;;;2.10;;
29280;SDS011;25048;49.590;11.026;2022-09-03T12:30:20;4.30;;;2.27;;
29280;SDS011;25048;49.590;11.026;2022-09-03T12:32:44;3.35;;;2.17;;
29280;SDS011;25048;49.590;11.026;2022-09-03T12:35:14;3.75;;;2.02;;
29280;SDS011;25048;49.590;11.026;2022-09-03T12:37:44;2.67;;;2.20;;
29280;SDS011;25048;49.590;11.026;2022-09-03T12:40:18;3.20;;;2.05;;
29280;SDS011;25048;49.590;11.026;2022-09-03T12:42:54;3.05;;;2.30;;
29280;SDS011;25048;49.590;11.026;2022-09-03T12:45:24;2.45;;;2.02;;
29280;SDS011;25048;49.590;11.026;2022-09-03T12:47:52;2.30;;;2.10;;
29280;SDS011;25048;49.590;11.026;2022-09-03T12:50:20;5.22;;;2.15;;
29280;SDS011;25048;49.590;11.026;2022-09-03T12:52:54;2.60;;;2.00;;
29280;SDS011;25048;49.590;11.026;2022-09-03T13:00:36;2.37;;;2.10;;
29280;SDS011;25048;49.590;11.026;2022-09-03T13:03:11;2.90;;;2.22;;
29280;SDS011;25048;49.590;11.026;2022-09-03T13:05:43;2.45;;;1.98;;
29280;SDS011;25048;49.590;11.026;2022-09-03T13:08:14;3.25;;;2.37;;
29280;SDS011;25048;49.590;11.026;2022-09-03T13:10:48;3.45;;;2.40;;
29280;SDS011;25048;49.590;11.026;2022-09-03T13:13:20;6.30;;;2.30;;
29280;SDS011;25048;49.590;11.026;2022-09-03T13:16:04;4.65;;;2.40;;
29280;SDS011;25048;49.590;11.026;2022-09-03T13:18:57;3.40;;;2.12;;
29280;SDS011;25048;49.590;11.026;2022-09-03T13:21:30;2.83;;;2.00;;
29280;SDS011;25048;49.590;11.026;2022-09-03T13:24:17;2.77;;;2.58;;
29280;SDS011;25048;49.590;11.026;2022-09-03T13:26:51;2.50;;;2.00;;
29280;SDS011;25048;49.590;11.026;2022-09-03T13:33:15;8.45;;;2.30;;
29280;SDS011;25048;49.590;11.026;2022-09-03T13:34:53;2.35;;;2.15;;
29280;SDS011;25048;49.590;11.026;2022-09-03T13:43:00;2.45;;;2.25;;
29280;SDS011;25048;49.590;11.026;2022-09-03T13:48:46;2.35;;;2.15;;
29280;SDS011;25048;49.590;11.026;2022-09-03T13:56:31;5.80;;;2.55;;
29280;SDS011;25048;49.590;11.026;2022-09-03T14:07:24;5.50;;;2.87;;
29280;SDS011;25048;49.590;11.026;2022-09-03T14:10:22;2.08;;;1.87;;
29280;SDS011;25048;49.590;11.026;2022-09-03T14:13:01;5.97;;;2.40;;
29280;SDS011;25048;49.590;11.026;2022-09-03T14:15:35;8.68;;;2.60;;
29280;SDS011;25048;49.590;11.026;2022-09-03T14:21:04;4.97;;;2.85;;
29280;SDS011;25048;49.590;11.026;2022-09-03T14:23:39;10.60;;;2.58;;
29280;SDS011;25048;49.590;11.026;2022-09-03T14:26:16;2.65;;;2.45;;
29280;SDS011;25048;49.590;11.026;2022-09-03T14:28:48;5.20;;;2.30;;
29280;SDS011;25048;49.590;11.026;2022-09-03T14:31:27;2.42;;;2.22;;
29280;SDS011;25048;49.590;11.026;2022-09-03T14:34:10;5.33;;;2.30;;
29280;SDS011;25048;49.590;11.026;2022-09-03T14:40:03;3.67;;;2.22;;
29280;SDS011;25048;49.590;11.026;2022-09-03T14:45:47;4.83;;;2.35;;
29280;SDS011;25048;49.590;11.026;2022-09-03T14:48:47;5.80;;;2.10;;
29280;SDS011;25048;49.590;11.026;2022-09-03T14:57:04;2.60;;;2.05;;
29280;SDS011;25048;49.590;11.026;2022-09-03T15:08:19;2.62;;;2.42;;
29280;SDS011;25048;49.590;11.026;2022-09-03T15:10:49;3.00;;;2.70;;
29280;SDS011;25048;49.590;11.026;2022-09-03T15:13:21;2.37;;;2.17;;
29280;SDS011;25048;49.590;11.026;2022-09-03T15:26:35;3.15;;;2.12;;
29280;SDS011;25048;49.590;11.026;2022-09-03T15:31:57;3.67;;;2.20;;
29280;SDS011;25048;49.590;11.026;2022-09-03T15:34:37;4.58;;;2.00;;
29280;SDS011;25048;49.590;11.026;2022-09-03T15:37:09;2.75;;;1.92;;
29280;SDS011;25048;49.590;11.026;2022-09-03T15:39:39;3.67;;;2.10;;
29280;SDS011;25048;49.590;11.026;2022-09-03T15:42:09;2.58;;;2.30;;
29280;SDS011;25048;49.590;11.026;2022-09-03T15:44:46;3.12;;;2.40;;
29280;SDS011;25048;49.590;11.026;2022-09-03T15:50:32;3.20;;;2.37;;
29280;SDS011;25048;49.590;11.026;2022-09-03T15:53:18;2.83;;;2.10;;
29280;SDS011;25048;49.590;11.026;2022-09-03T15:55:45;4.10;;;2.65;;
29280;SDS011;25048;49.590;11.026;2022-09-03T15:58:28;5.10;;;2.52;;
29280;SDS011;25048;49.590;11.026;2022-09-03T16:01:18;2.90;;;2.25;;
29280;SDS011;25048;49.590;11.026;2022-09-03T16:06:27;4.53;;;2.50;;
29280;SDS011;25048;49.590;11.026;2022-09-03T16:09:00;4.67;;;2.22;;
29280;SDS011;25048;49.590;11.026;2022-09-03T16:11:48;3.95;;;2.35;;
29280;SDS011;25048;49.590;11.026;2022-09-03T16:14:19;4.00;;;2.00;;
29280;SDS011;25048;49.590;11.026;2022-09-03T16:16:56;2.95;;;2.35;;
29280;SDS011;25048;49.590;11.026;2022-09-03T16:19:42;3.67;;;2.60;;
29280;SDS011;25048;49.590;11.026;2022-09-03T16:22:25;3.80;;;2.52;;
29280;SDS011;25048;49.590;11.026;2022-09-03T16:25:00;3.60;;;1.90;;
29280;SDS011;25048;49.590;11.026;2022-09-03T16:27:37;1.52;;;1.42;;
29280;SDS011;25048;49.590;11.026;2022-09-03T16:30:10;2.95;;;1.87;;
29280;SDS011;25048;49.590;11.026;2022-09-03T16:41:16;3.37;;;1.77;;
29280;SDS011;25048;49.590;11.026;2022-09-03T16:49:37;5.70;;;2.00;;
29280;SDS011;25048;49.590;11.026;2022-09-03T16:52:11;6.65;;;2.47;;
29280;SDS011;25048;49.590;11.026;2022-09-03T16:54:59;5.03;;;2.62;;
29280;SDS011;25048;49.590;11.026;2022-09-03T17:00:19;5.50;;;2.30;;
29280;SDS011;25048;49.590;11.026;2022-09-03T17:05:47;7.67;;;2.90;;
29280;SDS011;25048;49.590;11.026;2022-09-03T17:08:22;4.10;;;2.62;;
29280;SDS011;25048;49.590;11.026;2022-09-03T17:16:41;4.28;;;2.20;;
29280;SDS011;25048;49.590;11.026;2022-09-03T17:22:35;4.28;;;2.70;;
29280;SDS011;25048;49.590;11.026;2022-09-03T17:25:07;3.33;;;2.27;;
29280;SDS011;25048;49.590;11.026;2022-09-03T17:27:47;3.90;;;2.15;;
29280;SDS011;25048;49.590;11.026;2022-09-03T17:33:26;5.22;;;2.30;;
29280;SDS011;25048;49.590;11.026;2022-09-03T17:36:01;3.08;;;2.33;;
29280;SDS011;25048;49.590;11.026;2022-09-03T17:41:13;3.83;;;2.50;;
29280;SDS011;25048;49.590;11.026;2022-09-03T17:46:39;3.75;;;2.80;;
29280;SDS011;25048;49.590;11.026;2022-09-03T17:50:04;4.15;;;2.58;;
29280;SDS011;25048;49.590;11.026;2022-09-03T17:52:01;4.37;;;2.80;;
29280;SDS011;25048;49.590;11.026;2022-09-03T17:54:34;3.35;;;2.15;;
29280;SDS011;25048;49.590;11.026;2022-09-03T17:57:12;5.12;;;2.33;;
29280;SDS011;25048;49.590;11.026;2022-09-03T17:59:56;3.85;;;2.30;;
29280;SDS011;25048;49.590;11.026;2022-09-03T18:05:23;3.22;;;2.67;;
29280;SDS011;25048;49.590;11.026;2022-09-03T18:07:51;4.53;;;2.65;;
29280;SDS011;25048;49.590;11.026;2022-09-03T18:10:24;3.80;;;2.75;;
29280;SDS011;25048;49.590;11.026;2022-09-03T18:13:13;5.33;;;2.42;;
29280;SDS011;25048;49.590;11.026;2022-09-03T18:15:48;4.75;;;2.62;;
29280;SDS011;25048;49.590;11.026;2022-09-03T18:18:30;4.00;;;2.52;;
29280;SDS011;25048;49.590;11.026;2022-09-03T18:21:00;2.70;;;2.33;;
29280;SDS011;25048;49.590;11.026;2022-09-03T18:23:53;3.87;;;2.60;;
29280;SDS011;25048;49.590;11.026;2022-09-03T18:26:43;3.75;;;2.60;;
29280;SDS011;25048;49.590;11.026;2022-09-03T18:29:38;2.90;;;2.42;;
29280;SDS011;25048;49.590;11.026;2022-09-03T18:32:20;3.80;;;2.62;;
29280;SDS011;25048;49.590;11.026;2022-09-03T18:35:06;5.83;;;2.55;;